sensor_id;sensor_type;location;lat;lon;timestamp;P1;durP1;ratioP1;P2;durP2;ratioP2
6185;SDS011;3126;52.738;8.316;2022-12-07T00:02:59;12.20;;;7.72;;
6185;SDS011;3126;52.738;8.316;2022-12-07T00:08:00;10.63;;;7.20;;
6185;SDS011;3126;52.738;8.316;2022-12-07T00:13:00;17.38;;;7.60;;
6185;SDS011;3126;52.738;8.316;2022-12-07T00:18:01;11.77;;;6.18;;
6185;SDS011;3126;52.738;8.316;2022-12-07T00:23:02;11.40;;;6.88;;
6185;SDS011;3126;52.738;8.316;2022-12-07T00:28:03;10.05;;;6.60;;
6185;SDS011;3126;52.738;8.316;2022-12-07T00:33:04;9.80;;;6.70;;
6185;SDS011;3126;52.738;8.316;2022-12-07T00:38:05;10.73;;;6.03;;
6185;SDS011;3126;52.738;8.316;2022-12-07T00:43:07;12.57;;;6.72;;
6185;SDS011;3126;52.738;8.316;2022-12-07T00:48:08;9.00;;;6.20;;
6185;SDS011;3126;52.738;8.316;2022-12-07T00:53:09;10.50;;;6.70;;
6185;SDS011;3126;52.738;8.316;2022-12-07T00:58:10;8.88;;;6.00;;
6185;SDS011;3126;52.738;8.316;2022-12-07T01:03:12;13.45;;;7.60;;
6185;SDS011;3126;52.738;8.316;2022-12-07T01:08:13;11.10;;;6.68;;
6185;SDS011;3126;52.738;8.316;2022-12-07T01:13:15;11.65;;;6.40;;
6185;SDS011;3126;52.738;8.316;2022-12-07T01:18:16;13.15;;;6.68;;
6185;SDS011;3126;52.738;8.316;2022-12-07T01:23:17;11.40;;;6.57;;
6185;SDS011;3126;52.738;8.316;2022-12-07T01:28:18;13.93;;;7.07;;
6185;SDS011;3126;52.738;8.316;2022-12-07T01:33:19;10.40;;;6.07;;
6185;SDS011;3126;52.738;8.316;2022-12-07T01:38:20;12.88;;;6.40;;
6185;SDS011;3126;52.738;8.316;2022-12-07T01:43:21;10.73;;;6.70;;
6185;SDS011;3126;52.738;8.316;2022-12-07T01:48:42;12.63;;;5.65;;
6185;SDS011;3126;52.738;8.316;2022-12-07T01:53:43;11.70;;;6.07;;
6185;SDS011;3126;52.738;8.316;2022-12-07T01:58:46;10.20;;;6.03;;
6185;SDS011;3126;52.738;8.316;2022-12-07T02:03:47;10.60;;;5.72;;
6185;SDS011;3126;52.738;8.316;2022-12-07T02:08:48;14.32;;;5.35;;
6185;SDS011;3126;52.738;8.316;2022-12-07T02:13:49;10.95;;;5.63;;
6185;SDS011;3126;52.738;8.316;2022-12-07T02:19:05;8.40;;;5.00;;
6185;SDS011;3126;52.738;8.316;2022-12-07T02:29:27;13.27;;;6.43;;
6185;SDS011;3126;52.738;8.316;2022-12-07T02:34:35;10.27;;;5.07;;
6185;SDS011;3126;52.738;8.316;2022-12-07T02:39:42;10.63;;;5.40;;
6185;SDS011;3126;52.738;8.316;2022-12-07T02:44:44;8.32;;;4.85;;
6185;SDS011;3126;52.738;8.316;2022-12-07T02:49:46;8.77;;;5.03;;
6185;SDS011;3126;52.738;8.316;2022-12-07T02:54:47;8.68;;;5.13;;
6185;SDS011;3126;52.738;8.316;2022-12-07T03:10:16;9.00;;;5.05;;
6185;SDS011;3126;52.738;8.316;2022-12-07T03:15:22;11.82;;;5.07;;
6185;SDS011;3126;52.738;8.316;2022-12-07T03:20:25;6.95;;;4.55;;
6185;SDS011;3126;52.738;8.316;2022-12-07T03:25:26;6.47;;;3.30;;
6185;SDS011;3126;52.738;8.316;2022-12-07T06:26:54;5.38;;;2.38;;
6185;SDS011;3126;52.738;8.316;2022-12-07T06:31:55;8.65;;;3.97;;
6185;SDS011;3126;52.738;8.316;2022-12-07T06:36:56;9.65;;;3.95;;
6185;SDS011;3126;52.738;8.316;2022-12-07T06:41:58;14.85;;;5.40;;
6185;SDS011;3126;52.738;8.316;2022-12-07T06:52:25;18.65;;;9.77;;
6185;SDS011;3126;52.738;8.316;2022-12-07T06:57:26;6.28;;;3.97;;
6185;SDS011;3126;52.738;8.316;2022-12-07T07:02:27;2.90;;;2.65;;
6185;SDS011;3126;52.738;8.316;2022-12-07T07:07:28;5.15;;;1.70;;
6185;SDS011;3126;52.738;8.316;2022-12-07T07:12:30;3.70;;;2.25;;
6185;SDS011;3126;52.738;8.316;2022-12-07T07:17:34;6.28;;;1.90;;
6185;SDS011;3126;52.738;8.316;2022-12-07T07:22:38;4.45;;;2.53;;
6185;SDS011;3126;52.738;8.316;2022-12-07T07:27:43;4.40;;;1.60;;
6185;SDS011;3126;52.738;8.316;2022-12-07T07:32:44;3.92;;;1.77;;
6185;SDS011;3126;52.738;8.316;2022-12-07T07:37:51;9.35;;;2.28;;
6185;SDS011;3126;52.738;8.316;2022-12-07T07:42:53;5.80;;;1.90;;
6185;SDS011;3126;52.738;8.316;2022-12-07T07:47:54;4.43;;;1.45;;
6185;SDS011;3126;52.738;8.316;2022-12-07T07:52:58;5.57;;;2.55;;
6185;SDS011;3126;52.738;8.316;2022-12-07T07:58:02;4.78;;;1.83;;
6185;SDS011;3126;52.738;8.316;2022-12-07T08:03:06;2.70;;;1.27;;
6185;SDS011;3126;52.738;8.316;2022-12-07T08:08:10;5.00;;;1.50;;
6185;SDS011;3126;52.738;8.316;2022-12-07T08:13:11;3.10;;;1.10;;
6185;SDS011;3126;52.738;8.316;2022-12-07T08:18:16;7.25;;;2.35;;
6185;SDS011;3126;52.738;8.316;2022-12-07T08:23:20;7.78;;;3.38;;
6185;SDS011;3126;52.738;8.316;2022-12-07T08:28:21;10.95;;;4.72;;
6185;SDS011;3126;52.738;8.316;2022-12-07T08:33:22;8.02;;;2.72;;
6185;SDS011;3126;52.738;8.316;2022-12-07T08:38:23;3.70;;;2.45;;
6185;SDS011;3126;52.738;8.316;2022-12-07T08:43:24;3.83;;;1.42;;
6185;SDS011;3126;52.738;8.316;2022-12-07T08:48:28;6.18;;;1.80;;
6185;SDS011;3126;52.738;8.316;2022-12-07T08:53:31;7.65;;;2.17;;
6185;SDS011;3126;52.738;8.316;2022-12-07T08:58:36;6.35;;;1.60;;
6185;SDS011;3126;52.738;8.316;2022-12-07T09:03:40;5.65;;;1.90;;
6185;SDS011;3126;52.738;8.316;2022-12-07T09:08:46;3.40;;;1.50;;
6185;SDS011;3126;52.738;8.316;2022-12-07T09:13:51;3.40;;;1.58;;
6185;SDS011;3126;52.738;8.316;2022-12-07T09:18:52;9.20;;;2.00;;
6185;SDS011;3126;52.738;8.316;2022-12-07T09:23:56;5.10;;;2.17;;
6185;SDS011;3126;52.738;8.316;2022-12-07T09:29:01;5.30;;;1.67;;
6185;SDS011;3126;52.738;8.316;2022-12-07T09:34:02;6.22;;;2.00;;
6185;SDS011;3126;52.738;8.316;2022-12-07T09:39:08;6.53;;;1.48;;
6185;SDS011;3126;52.738;8.316;2022-12-07T09:44:11;5.38;;;1.50;;
6185;SDS011;3126;52.738;8.316;2022-12-07T09:49:14;6.93;;;2.47;;
6185;SDS011;3126;52.738;8.316;2022-12-07T09:54:17;12.43;;;4.18;;
6185;SDS011;3126;52.738;8.316;2022-12-07T09:59:18;8.85;;;2.67;;
6185;SDS011;3126;52.738;8.316;2022-12-07T10:04:23;9.88;;;2.53;;
6185;SDS011;3126;52.738;8.316;2022-12-07T10:09:25;8.73;;;2.47;;
6185;SDS011;3126;52.738;8.316;2022-12-07T10:14:29;7.80;;;2.20;;
6185;SDS011;3126;52.738;8.316;2022-12-07T10:19:31;6.63;;;2.20;;
6185;SDS011;3126;52.738;8.316;2022-12-07T10:24:33;4.03;;;1.65;;
6185;SDS011;3126;52.738;8.316;2022-12-07T10:29:36;7.97;;;2.38;;
6185;SDS011;3126;52.738;8.316;2022-12-07T10:34:40;4.38;;;1.35;;
6185;SDS011;3126;52.738;8.316;2022-12-07T10:45:07;5.65;;;2.38;;
6185;SDS011;3126;52.738;8.316;2022-12-07T10:50:25;7.03;;;1.70;;
6185;SDS011;3126;52.738;8.316;2022-12-07T10:55:56;6.40;;;1.75;;
6185;SDS011;3126;52.738;8.316;2022-12-07T11:01:08;6.60;;;1.85;;
6185;SDS011;3126;52.738;8.316;2022-12-07T11:27:52;6.68;;;1.60;;
6185;SDS011;3126;52.738;8.316;2022-12-07T11:33:09;6.47;;;1.40;;
6185;SDS011;3126;52.738;8.316;2022-12-07T11:38:16;5.40;;;1.42;;
6185;SDS011;3126;52.738;8.316;2022-12-07T11:43:21;4.38;;;1.60;;
6185;SDS011;3126;52.738;8.316;2022-12-07T11:48:38;3.40;;;1.48;;
6185;SDS011;3126;52.738;8.316;2022-12-07T12:19:30;1.50;;;1.35;;
6185;SDS011;3126;52.738;8.316;2022-12-07T12:24:32;3.08;;;1.05;;
6185;SDS011;3126;52.738;8.316;2022-12-07T12:29:37;2.78;;;1.75;;
6185;SDS011;3126;52.738;8.316;2022-12-07T12:45:18;5.28;;;1.58;;
6185;SDS011;3126;52.738;8.316;2022-12-07T12:50:30;3.88;;;1.00;;
6185;SDS011;3126;52.738;8.316;2022-12-07T13:00:41;3.25;;;1.20;;
6185;SDS011;3126;52.738;8.316;2022-12-07T13:05:42;2.80;;;1.20;;
6185;SDS011;3126;52.738;8.316;2022-12-07T13:10:45;4.68;;;1.05;;
6185;SDS011;3126;52.738;8.316;2022-12-07T13:15:51;3.60;;;1.60;;
6185;SDS011;3126;52.738;8.316;2022-12-07T13:20:55;4.93;;;1.27;;
6185;SDS011;3126;52.738;8.316;2022-12-07T13:36:21;7.60;;;2.20;;
6185;SDS011;3126;52.738;8.316;2022-12-07T13:41:24;6.18;;;1.65;;
6185;SDS011;3126;52.738;8.316;2022-12-07T13:46:27;5.68;;;1.50;;
6185;SDS011;3126;52.738;8.316;2022-12-07T13:51:33;3.72;;;1.42;;
6185;SDS011;3126;52.738;8.316;2022-12-07T14:02:26;4.10;;;2.20;;
6185;SDS011;3126;52.738;8.316;2022-12-07T14:07:29;4.03;;;2.42;;
6185;SDS011;3126;52.738;8.316;2022-12-07T14:12:35;6.07;;;1.95;;
6185;SDS011;3126;52.738;8.316;2022-12-07T14:17:36;5.78;;;2.00;;
6185;SDS011;3126;52.738;8.316;2022-12-07T14:22:54;3.80;;;1.58;;
6185;SDS011;3126;52.738;8.316;2022-12-07T14:28:00;6.40;;;1.83;;
6185;SDS011;3126;52.738;8.316;2022-12-07T14:33:04;4.65;;;2.10;;
6185;SDS011;3126;52.738;8.316;2022-12-07T14:38:07;3.58;;;1.63;;
6185;SDS011;3126;52.738;8.316;2022-12-07T14:43:09;4.82;;;1.65;;
6185;SDS011;3126;52.738;8.316;2022-12-07T14:48:14;9.60;;;2.30;;
6185;SDS011;3126;52.738;8.316;2022-12-07T14:53:17;5.57;;;1.75;;
6185;SDS011;3126;52.738;8.316;2022-12-07T14:58:18;10.15;;;2.03;;
6185;SDS011;3126;52.738;8.316;2022-12-07T15:03:20;6.93;;;1.85;;
6185;SDS011;3126;52.738;8.316;2022-12-07T15:08:21;7.35;;;2.05;;
6185;SDS011;3126;52.738;8.316;2022-12-07T15:13:22;3.40;;;1.45;;
6185;SDS011;3126;52.738;8.316;2022-12-07T15:18:43;7.32;;;1.92;;
6185;SDS011;3126;52.738;8.316;2022-12-07T15:23:48;6.80;;;1.95;;
6185;SDS011;3126;52.738;8.316;2022-12-07T15:28:52;4.65;;;1.92;;
6185;SDS011;3126;52.738;8.316;2022-12-07T15:33:54;4.93;;;1.95;;
6185;SDS011;3126;52.738;8.316;2022-12-07T15:38:56;5.35;;;2.25;;
6185;SDS011;3126;52.738;8.316;2022-12-07T15:43:57;6.30;;;3.08;;
6185;SDS011;3126;52.738;8.316;2022-12-07T15:49:18;5.05;;;2.17;;
6185;SDS011;3126;52.738;8.316;2022-12-07T15:54:20;6.50;;;2.60;;
6185;SDS011;3126;52.738;8.316;2022-12-07T15:59:22;6.43;;;2.28;;
6185;SDS011;3126;52.738;8.316;2022-12-07T16:04:23;6.50;;;2.65;;
6185;SDS011;3126;52.738;8.316;2022-12-07T16:09:24;9.05;;;3.00;;
6185;SDS011;3126;52.738;8.316;2022-12-07T16:14:26;4.30;;;1.90;;
6185;SDS011;3126;52.738;8.316;2022-12-07T16:19:27;14.45;;;6.80;;
6185;SDS011;3126;52.738;8.316;2022-12-07T16:24:28;8.27;;;3.95;;
6185;SDS011;3126;52.738;8.316;2022-12-07T16:29:29;4.90;;;2.63;;
6185;SDS011;3126;52.738;8.316;2022-12-07T16:34:30;5.18;;;2.10;;
6185;SDS011;3126;52.738;8.316;2022-12-07T16:39:32;3.92;;;1.88;;
6185;SDS011;3126;52.738;8.316;2022-12-07T16:44:34;7.45;;;3.13;;
6185;SDS011;3126;52.738;8.316;2022-12-07T16:49:35;7.32;;;2.95;;
6185;SDS011;3126;52.738;8.316;2022-12-07T16:54:36;8.35;;;3.75;;
6185;SDS011;3126;52.738;8.316;2022-12-07T16:59:37;8.95;;;3.65;;
6185;SDS011;3126;52.738;8.316;2022-12-07T17:04:38;9.52;;;3.58;;
6185;SDS011;3126;52.738;8.316;2022-12-07T17:14:43;8.40;;;2.63;;
6185;SDS011;3126;52.738;8.316;2022-12-07T17:20:03;7.32;;;2.30;;
6185;SDS011;3126;52.738;8.316;2022-12-07T17:25:04;5.18;;;2.13;;
6185;SDS011;3126;52.738;8.316;2022-12-07T17:30:05;6.15;;;2.80;;
6185;SDS011;3126;52.738;8.316;2022-12-07T17:35:07;5.40;;;3.00;;
6185;SDS011;3126;52.738;8.316;2022-12-07T17:40:08;4.25;;;2.60;;
6185;SDS011;3126;52.738;8.316;2022-12-07T17:45:09;5.38;;;2.72;;
6185;SDS011;3126;52.738;8.316;2022-12-07T17:50:11;4.68;;;2.05;;
6185;SDS011;3126;52.738;8.316;2022-12-07T17:55:13;3.97;;;2.28;;
6185;SDS011;3126;52.738;8.316;2022-12-07T18:00:14;1.77;;;1.10;;
6185;SDS011;3126;52.738;8.316;2022-12-07T18:05:15;2.65;;;1.20;;
6185;SDS011;3126;52.738;8.316;2022-12-07T18:10:16;3.58;;;1.10;;
6185;SDS011;3126;52.738;8.316;2022-12-07T18:15:17;3.85;;;1.38;;
6185;SDS011;3126;52.738;8.316;2022-12-07T18:20:20;2.15;;;1.02;;
6185;SDS011;3126;52.738;8.316;2022-12-07T18:25:21;5.22;;;1.45;;
6185;SDS011;3126;52.738;8.316;2022-12-07T18:30:22;3.50;;;2.08;;
6185;SDS011;3126;52.738;8.316;2022-12-07T18:35:23;3.05;;;1.90;;
6185;SDS011;3126;52.738;8.316;2022-12-07T18:40:24;4.68;;;1.75;;
6185;SDS011;3126;52.738;8.316;2022-12-07T18:45:25;5.35;;;2.72;;
6185;SDS011;3126;52.738;8.316;2022-12-07T18:50:27;4.72;;;2.78;;
6185;SDS011;3126;52.738;8.316;2022-12-07T18:55:30;5.00;;;2.78;;
6185;SDS011;3126;52.738;8.316;2022-12-07T19:00:32;5.25;;;2.63;;
6185;SDS011;3126;52.738;8.316;2022-12-07T19:05:34;3.83;;;2.45;;
6185;SDS011;3126;52.738;8.316;2022-12-07T19:10:36;9.65;;;3.70;;
6185;SDS011;3126;52.738;8.316;2022-12-07T19:15:41;11.40;;;4.10;;
6185;SDS011;3126;52.738;8.316;2022-12-07T19:20:42;11.48;;;3.85;;
6185;SDS011;3126;52.738;8.316;2022-12-07T19:25:49;8.32;;;3.83;;
6185;SDS011;3126;52.738;8.316;2022-12-07T19:30:51;7.93;;;2.80;;
6185;SDS011;3126;52.738;8.316;2022-12-07T19:35:52;5.43;;;2.40;;
6185;SDS011;3126;52.738;8.316;2022-12-07T19:40:53;5.65;;;2.67;;
6185;SDS011;3126;52.738;8.316;2022-12-07T19:45:54;13.48;;;5.85;;
6185;SDS011;3126;52.738;8.316;2022-12-07T19:50:55;15.80;;;9.95;;
6185;SDS011;3126;52.738;8.316;2022-12-07T19:55:56;5.97;;;3.65;;
6185;SDS011;3126;52.738;8.316;2022-12-07T20:01:03;9.07;;;3.05;;
6185;SDS011;3126;52.738;8.316;2022-12-07T20:06:15;6.43;;;3.67;;
6185;SDS011;3126;52.738;8.316;2022-12-07T20:11:17;4.60;;;2.47;;
6185;SDS011;3126;52.738;8.316;2022-12-07T20:16:37;4.05;;;2.50;;
6185;SDS011;3126;52.738;8.316;2022-12-07T20:21:44;4.00;;;2.15;;
6185;SDS011;3126;52.738;8.316;2022-12-07T20:26:46;2.83;;;2.20;;
6185;SDS011;3126;52.738;8.316;2022-12-07T20:31:49;5.63;;;2.03;;
6185;SDS011;3126;52.738;8.316;2022-12-07T20:36:51;3.78;;;2.03;;
6185;SDS011;3126;52.738;8.316;2022-12-07T20:41:53;3.90;;;2.20;;
6185;SDS011;3126;52.738;8.316;2022-12-07T20:47:15;5.95;;;2.45;;
6185;SDS011;3126;52.738;8.316;2022-12-07T20:52:16;6.03;;;2.10;;
6185;SDS011;3126;52.738;8.316;2022-12-07T20:57:19;8.35;;;4.90;;
6185;SDS011;3126;52.738;8.316;2022-12-07T21:02:20;6.97;;;3.38;;
6185;SDS011;3126;52.738;8.316;2022-12-07T21:07:21;4.28;;;2.33;;
6185;SDS011;3126;52.738;8.316;2022-12-07T21:12:22;4.30;;;2.22;;
6185;SDS011;3126;52.738;8.316;2022-12-07T21:17:23;5.50;;;2.78;;
6185;SDS011;3126;52.738;8.316;2022-12-07T21:22:26;3.67;;;2.80;;
6185;SDS011;3126;52.738;8.316;2022-12-07T21:27:27;4.78;;;2.78;;
6185;SDS011;3126;52.738;8.316;2022-12-07T21:32:29;5.47;;;3.30;;
6185;SDS011;3126;52.738;8.316;2022-12-07T21:37:31;6.72;;;3.17;;
6185;SDS011;3126;52.738;8.316;2022-12-07T21:42:33;7.20;;;3.33;;
6185;SDS011;3126;52.738;8.316;2022-12-07T21:47:34;4.78;;;3.72;;
6185;SDS011;3126;52.738;8.316;2022-12-07T21:52:35;4.78;;;3.13;;
6185;SDS011;3126;52.738;8.316;2022-12-07T21:57:36;5.72;;;3.65;;
6185;SDS011;3126;52.738;8.316;2022-12-07T22:02:37;4.82;;;2.90;;
6185;SDS011;3126;52.738;8.316;2022-12-07T22:07:38;5.40;;;2.90;;
6185;SDS011;3126;52.738;8.316;2022-12-07T22:12:40;3.40;;;2.72;;
6185;SDS011;3126;52.738;8.316;2022-12-07T22:17:40;2.75;;;2.40;;
6185;SDS011;3126;52.738;8.316;2022-12-07T22:22:41;4.28;;;2.60;;
6185;SDS011;3126;52.738;8.316;2022-12-07T22:27:42;7.57;;;3.30;;
6185;SDS011;3126;52.738;8.316;2022-12-07T22:32:43;6.55;;;3.25;;
6185;SDS011;3126;52.738;8.316;2022-12-07T22:37:44;5.32;;;3.00;;
6185;SDS011;3126;52.738;8.316;2022-12-07T22:42:45;5.20;;;3.33;;
6185;SDS011;3126;52.738;8.316;2022-12-07T22:47:46;7.22;;;3.28;;
6185;SDS011;3126;52.738;8.316;2022-12-07T22:52:47;3.55;;;2.65;;
6185;SDS011;3126;52.738;8.316;2022-12-07T22:57:48;7.55;;;3.25;;
6185;SDS011;3126;52.738;8.316;2022-12-07T23:02:49;6.20;;;2.85;;
6185;SDS011;3126;52.738;8.316;2022-12-07T23:07:51;4.45;;;3.05;;
6185;SDS011;3126;52.738;8.316;2022-12-07T23:12:52;5.45;;;2.83;;
6185;SDS011;3126;52.738;8.316;2022-12-07T23:18:12;6.15;;;3.10;;
6185;SDS011;3126;52.738;8.316;2022-12-07T23:23:13;6.30;;;3.13;;
6185;SDS011;3126;52.738;8.316;2022-12-07T23:28:14;7.78;;;3.28;;
6185;SDS011;3126;52.738;8.316;2022-12-07T23:33:14;7.03;;;3.92;;
6185;SDS011;3126;52.738;8.316;2022-12-07T23:38:15;9.25;;;4.05;;
6185;SDS011;3126;52.738;8.316;2022-12-07T23:43:16;5.85;;;3.00;;
6185;SDS011;3126;52.738;8.316;2022-12-07T23:48:17;6.20;;;3.83;;
6185;SDS011;3126;52.738;8.316;2022-12-07T23:53:18;4.68;;;2.80;;
6185;SDS011;3126;52.738;8.316;2022-12-07T23:58:19;5.20;;;3.17;;
